sensor_id;sensor_type;location;lat;lon;timestamp;P1;durP1;ratioP1;P2;durP2;ratioP2
568;SDS011;269;48.884;9.192;2022-12-07T00:01:25;9.95;;;9.07;;
568;SDS011;269;48.884;9.192;2022-12-07T00:03:53;11.23;;;10.20;;
568;SDS011;269;48.884;9.192;2022-12-07T00:06:27;10.52;;;9.52;;
568;SDS011;269;48.884;9.192;2022-12-07T00:08:54;11.13;;;10.13;;
568;SDS011;269;48.884;9.192;2022-12-07T00:11:22;10.57;;;9.50;;
568;SDS011;269;48.884;9.192;2022-12-07T00:13:50;10.95;;;9.88;;
568;SDS011;269;48.884;9.192;2022-12-07T00:16:19;10.52;;;9.27;;
568;SDS011;269;48.884;9.192;2022-12-07T00:18:47;10.52;;;9.60;;
568;SDS011;269;48.884;9.192;2022-12-07T00:21:17;9.82;;;8.98;;
568;SDS011;269;48.884;9.192;2022-12-07T00:23:48;11.18;;;10.07;;
568;SDS011;269;48.884;9.192;2022-12-07T00:26:18;11.65;;;9.88;;
568;SDS011;269;48.884;9.192;2022-12-07T00:28:46;10.30;;;9.30;;
568;SDS011;269;48.884;9.192;2022-12-07T00:31:14;10.75;;;9.75;;
568;SDS011;269;48.884;9.192;2022-12-07T00:33:43;9.75;;;8.75;;
568;SDS011;269;48.884;9.192;2022-12-07T00:36:11;9.98;;;9.05;;
568;SDS011;269;48.884;9.192;2022-12-07T00:38:40;11.38;;;9.32;;
568;SDS011;269;48.884;9.192;2022-12-07T00:41:09;10.40;;;9.30;;
568;SDS011;269;48.884;9.192;2022-12-07T00:43:38;10.35;;;9.35;;
568;SDS011;269;48.884;9.192;2022-12-07T00:46:06;10.13;;;9.23;;
568;SDS011;269;48.884;9.192;2022-12-07T00:48:35;10.07;;;9.00;;
568;SDS011;269;48.884;9.192;2022-12-07T00:51:02;10.20;;;9.25;;
568;SDS011;269;48.884;9.192;2022-12-07T00:53:30;10.25;;;9.35;;
568;SDS011;269;48.884;9.192;2022-12-07T00:56:04;11.05;;;9.85;;
568;SDS011;269;48.884;9.192;2022-12-07T00:58:34;10.43;;;9.40;;
568;SDS011;269;48.884;9.192;2022-12-07T01:01:02;11.00;;;9.80;;
568;SDS011;269;48.884;9.192;2022-12-07T01:03:30;11.18;;;10.05;;
568;SDS011;269;48.884;9.192;2022-12-07T01:05:57;11.57;;;10.48;;
568;SDS011;269;48.884;9.192;2022-12-07T01:08:25;11.38;;;10.25;;
568;SDS011;269;48.884;9.192;2022-12-07T01:10:57;11.35;;;10.20;;
568;SDS011;269;48.884;9.192;2022-12-07T01:13:25;10.32;;;9.32;;
568;SDS011;269;48.884;9.192;2022-12-07T01:15:57;11.13;;;10.07;;
568;SDS011;269;48.884;9.192;2022-12-07T01:18:27;11.77;;;10.60;;
568;SDS011;269;48.884;9.192;2022-12-07T01:20:59;10.63;;;9.63;;
568;SDS011;269;48.884;9.192;2022-12-07T01:23:28;12.25;;;9.90;;
568;SDS011;269;48.884;9.192;2022-12-07T01:25:56;10.27;;;9.38;;
568;SDS011;269;48.884;9.192;2022-12-07T01:28:23;10.90;;;9.80;;
568;SDS011;269;48.884;9.192;2022-12-07T01:30:56;11.20;;;9.95;;
568;SDS011;269;48.884;9.192;2022-12-07T01:33:26;11.57;;;10.52;;
568;SDS011;269;48.884;9.192;2022-12-07T01:35:53;9.88;;;8.98;;
568;SDS011;269;48.884;9.192;2022-12-07T01:38:20;10.15;;;9.15;;
568;SDS011;269;48.884;9.192;2022-12-07T01:40:53;11.52;;;10.43;;
568;SDS011;269;48.884;9.192;2022-12-07T01:43:21;10.77;;;9.75;;
568;SDS011;269;48.884;9.192;2022-12-07T01:45:50;10.48;;;9.38;;
568;SDS011;269;48.884;9.192;2022-12-07T01:48:20;10.80;;;9.70;;
568;SDS011;269;48.884;9.192;2022-12-07T01:50:51;10.02;;;9.05;;
568;SDS011;269;48.884;9.192;2022-12-07T01:53:21;12.30;;;10.85;;
568;SDS011;269;48.884;9.192;2022-12-07T01:55:53;11.00;;;9.90;;
568;SDS011;269;48.884;9.192;2022-12-07T01:58:22;11.35;;;10.20;;
568;SDS011;269;48.884;9.192;2022-12-07T02:00:50;10.10;;;9.10;;
568;SDS011;269;48.884;9.192;2022-12-07T02:03:20;10.55;;;9.55;;
568;SDS011;269;48.884;9.192;2022-12-07T02:05:51;10.90;;;9.85;;
568;SDS011;269;48.884;9.192;2022-12-07T02:08:21;10.57;;;9.50;;
568;SDS011;269;48.884;9.192;2022-12-07T02:10:48;11.88;;;10.68;;
568;SDS011;269;48.884;9.192;2022-12-07T02:13:16;11.38;;;10.30;;
568;SDS011;269;48.884;9.192;2022-12-07T02:16:00;11.45;;;10.35;;
568;SDS011;269;48.884;9.192;2022-12-07T02:21:25;14.18;;;12.20;;
568;SDS011;269;48.884;9.192;2022-12-07T02:24:13;13.68;;;12.13;;
568;SDS011;269;48.884;9.192;2022-12-07T02:26:53;12.85;;;11.65;;
568;SDS011;269;48.884;9.192;2022-12-07T02:29:40;13.02;;;11.70;;
568;SDS011;269;48.884;9.192;2022-12-07T02:32:14;12.38;;;11.07;;
568;SDS011;269;48.884;9.192;2022-12-07T02:34:47;11.88;;;10.77;;
568;SDS011;269;48.884;9.192;2022-12-07T02:37:19;14.05;;;12.63;;
568;SDS011;269;48.884;9.192;2022-12-07T02:39:57;12.13;;;10.93;;
568;SDS011;269;48.884;9.192;2022-12-07T02:42:31;14.38;;;12.88;;
568;SDS011;269;48.884;9.192;2022-12-07T02:45:03;12.77;;;11.50;;
568;SDS011;269;48.884;9.192;2022-12-07T02:47:33;13.10;;;11.85;;
568;SDS011;269;48.884;9.192;2022-12-07T02:50:02;12.73;;;11.25;;
568;SDS011;269;48.884;9.192;2022-12-07T02:52:30;12.23;;;11.02;;
568;SDS011;269;48.884;9.192;2022-12-07T02:54:57;11.98;;;10.65;;
568;SDS011;269;48.884;9.192;2022-12-07T02:57:28;12.73;;;11.15;;
568;SDS011;269;48.884;9.192;2022-12-07T03:00:10;12.05;;;10.45;;
568;SDS011;269;48.884;9.192;2022-12-07T03:02:42;11.60;;;10.40;;
568;SDS011;269;48.884;9.192;2022-12-07T03:05:27;12.30;;;11.05;;
568;SDS011;269;48.884;9.192;2022-12-07T03:08:11;12.75;;;11.45;;
568;SDS011;269;48.884;9.192;2022-12-07T03:10:48;12.73;;;11.38;;
568;SDS011;269;48.884;9.192;2022-12-07T03:13:22;13.63;;;12.32;;
568;SDS011;269;48.884;9.192;2022-12-07T03:15:55;11.80;;;10.70;;
568;SDS011;269;48.884;9.192;2022-12-07T03:18:29;12.30;;;10.90;;
568;SDS011;269;48.884;9.192;2022-12-07T03:21:00;11.30;;;10.15;;
568;SDS011;269;48.884;9.192;2022-12-07T03:23:30;11.52;;;10.32;;
568;SDS011;269;48.884;9.192;2022-12-07T03:26:01;11.35;;;10.13;;
568;SDS011;269;48.884;9.192;2022-12-07T03:28:31;11.30;;;10.10;;
568;SDS011;269;48.884;9.192;2022-12-07T03:31:07;12.90;;;10.98;;
568;SDS011;269;48.884;9.192;2022-12-07T03:33:42;11.38;;;10.18;;
568;SDS011;269;48.884;9.192;2022-12-07T03:36:14;12.10;;;10.90;;
568;SDS011;269;48.884;9.192;2022-12-07T03:38:47;10.23;;;9.13;;
568;SDS011;269;48.884;9.192;2022-12-07T03:43:49;12.25;;;11.05;;
568;SDS011;269;48.884;9.192;2022-12-07T03:46:19;12.68;;;11.38;;
568;SDS011;269;48.884;9.192;2022-12-07T03:48:55;11.18;;;10.00;;
568;SDS011;269;48.884;9.192;2022-12-07T03:51:33;14.15;;;12.20;;
568;SDS011;269;48.884;9.192;2022-12-07T03:54:07;11.57;;;10.38;;
568;SDS011;269;48.884;9.192;2022-12-07T03:56:37;12.75;;;11.48;;
568;SDS011;269;48.884;9.192;2022-12-07T03:59:06;13.02;;;11.25;;
568;SDS011;269;48.884;9.192;2022-12-07T04:01:35;12.85;;;11.25;;
568;SDS011;269;48.884;9.192;2022-12-07T04:04:03;11.60;;;10.32;;
568;SDS011;269;48.884;9.192;2022-12-07T04:06:30;12.65;;;11.35;;
568;SDS011;269;48.884;9.192;2022-12-07T04:08:58;13.10;;;11.80;;
568;SDS011;269;48.884;9.192;2022-12-07T04:11:25;12.88;;;11.57;;
568;SDS011;269;48.884;9.192;2022-12-07T04:13:52;12.65;;;11.43;;
568;SDS011;269;48.884;9.192;2022-12-07T04:16:38;13.02;;;11.23;;
568;SDS011;269;48.884;9.192;2022-12-07T04:19:05;13.82;;;11.40;;
568;SDS011;269;48.884;9.192;2022-12-07T04:21:32;12.02;;;10.82;;
568;SDS011;269;48.884;9.192;2022-12-07T04:23:59;13.32;;;11.70;;
568;SDS011;269;48.884;9.192;2022-12-07T04:26:26;12.32;;;11.07;;
568;SDS011;269;48.884;9.192;2022-12-07T04:28:54;12.55;;;10.90;;
568;SDS011;269;48.884;9.192;2022-12-07T04:31:21;10.63;;;9.55;;
568;SDS011;269;48.884;9.192;2022-12-07T04:33:50;11.50;;;10.30;;
568;SDS011;269;48.884;9.192;2022-12-07T04:36:17;12.32;;;11.13;;
568;SDS011;269;48.884;9.192;2022-12-07T04:38:45;11.63;;;10.35;;
568;SDS011;269;48.884;9.192;2022-12-07T04:41:13;13.70;;;12.32;;
568;SDS011;269;48.884;9.192;2022-12-07T04:43:41;11.90;;;10.70;;
568;SDS011;269;48.884;9.192;2022-12-07T04:46:08;11.02;;;9.93;;
568;SDS011;269;48.884;9.192;2022-12-07T04:48:37;11.90;;;10.75;;
568;SDS011;269;48.884;9.192;2022-12-07T04:51:07;12.45;;;11.15;;
568;SDS011;269;48.884;9.192;2022-12-07T04:53:35;11.90;;;10.70;;
568;SDS011;269;48.884;9.192;2022-12-07T04:56:03;12.15;;;10.95;;
568;SDS011;269;48.884;9.192;2022-12-07T04:58:32;11.40;;;10.15;;
568;SDS011;269;48.884;9.192;2022-12-07T05:00:59;11.02;;;10.02;;
568;SDS011;269;48.884;9.192;2022-12-07T05:03:27;8.93;;;8.02;;
568;SDS011;269;48.884;9.192;2022-12-07T05:05:54;12.27;;;11.07;;
568;SDS011;269;48.884;9.192;2022-12-07T05:08:23;12.30;;;11.02;;
568;SDS011;269;48.884;9.192;2022-12-07T05:10:50;10.00;;;9.00;;
568;SDS011;269;48.884;9.192;2022-12-07T05:13:17;10.80;;;9.80;;
568;SDS011;269;48.884;9.192;2022-12-07T05:15:44;11.55;;;9.25;;
568;SDS011;269;48.884;9.192;2022-12-07T05:18:15;11.25;;;10.15;;
568;SDS011;269;48.884;9.192;2022-12-07T05:20:42;11.50;;;10.40;;
568;SDS011;269;48.884;9.192;2022-12-07T05:23:10;12.63;;;11.32;;
568;SDS011;269;48.884;9.192;2022-12-07T05:25:39;10.50;;;9.45;;
568;SDS011;269;48.884;9.192;2022-12-07T05:28:06;11.07;;;9.98;;
568;SDS011;269;48.884;9.192;2022-12-07T05:30:33;11.73;;;10.63;;
568;SDS011;269;48.884;9.192;2022-12-07T05:33:01;11.02;;;9.93;;
568;SDS011;269;48.884;9.192;2022-12-07T05:35:30;12.73;;;11.25;;
568;SDS011;269;48.884;9.192;2022-12-07T05:37:57;11.90;;;10.80;;
568;SDS011;269;48.884;9.192;2022-12-07T05:40:24;13.32;;;10.02;;
568;SDS011;269;48.884;9.192;2022-12-07T05:42:53;11.63;;;10.43;;
568;SDS011;269;48.884;9.192;2022-12-07T05:45:19;11.77;;;10.57;;
568;SDS011;269;48.884;9.192;2022-12-07T05:47:46;11.63;;;10.35;;
568;SDS011;269;48.884;9.192;2022-12-07T05:50:13;10.45;;;9.40;;
568;SDS011;269;48.884;9.192;2022-12-07T05:52:40;10.75;;;9.52;;
568;SDS011;269;48.884;9.192;2022-12-07T05:55:09;10.30;;;9.20;;
568;SDS011;269;48.884;9.192;2022-12-07T05:57:38;10.80;;;9.70;;
568;SDS011;269;48.884;9.192;2022-12-07T06:00:27;10.60;;;9.43;;
568;SDS011;269;48.884;9.192;2022-12-07T06:02:52;10.43;;;9.32;;
568;SDS011;269;48.884;9.192;2022-12-07T06:05:20;10.13;;;9.07;;
568;SDS011;269;48.884;9.192;2022-12-07T06:07:47;10.90;;;9.40;;
568;SDS011;269;48.884;9.192;2022-12-07T06:10:14;9.63;;;8.63;;
568;SDS011;269;48.884;9.192;2022-12-07T06:12:42;9.68;;;8.30;;
568;SDS011;269;48.884;9.192;2022-12-07T06:15:09;10.07;;;9.07;;
568;SDS011;269;48.884;9.192;2022-12-07T06:17:39;10.88;;;9.75;;
568;SDS011;269;48.884;9.192;2022-12-07T06:20:07;10.23;;;8.57;;
568;SDS011;269;48.884;9.192;2022-12-07T06:22:35;9.43;;;8.43;;
568;SDS011;269;48.884;9.192;2022-12-07T06:25:02;9.68;;;8.68;;
568;SDS011;269;48.884;9.192;2022-12-07T06:27:29;10.40;;;8.73;;
568;SDS011;269;48.884;9.192;2022-12-07T06:29:58;11.52;;;8.90;;
568;SDS011;269;48.884;9.192;2022-12-07T06:32:30;9.88;;;8.50;;
568;SDS011;269;48.884;9.192;2022-12-07T06:34:59;9.00;;;8.10;;
568;SDS011;269;48.884;9.192;2022-12-07T06:37:26;9.20;;;8.18;;
568;SDS011;269;48.884;9.192;2022-12-07T06:39:54;9.05;;;7.63;;
568;SDS011;269;48.884;9.192;2022-12-07T06:42:22;8.68;;;7.32;;
568;SDS011;269;48.884;9.192;2022-12-07T06:44:49;8.02;;;7.22;;
568;SDS011;269;48.884;9.192;2022-12-07T06:47:16;9.45;;;7.20;;
568;SDS011;269;48.884;9.192;2022-12-07T06:49:43;8.02;;;7.20;;
568;SDS011;269;48.884;9.192;2022-12-07T06:52:11;7.63;;;6.88;;
568;SDS011;269;48.884;9.192;2022-12-07T06:54:38;7.78;;;7.07;;
568;SDS011;269;48.884;9.192;2022-12-07T06:57:05;8.05;;;7.25;;
568;SDS011;269;48.884;9.192;2022-12-07T06:59:32;7.78;;;7.03;;
568;SDS011;269;48.884;9.192;2022-12-07T07:02:00;7.57;;;6.18;;
568;SDS011;269;48.884;9.192;2022-12-07T07:04:28;8.85;;;7.57;;
568;SDS011;269;48.884;9.192;2022-12-07T07:06:55;8.02;;;7.22;;
568;SDS011;269;48.884;9.192;2022-12-07T07:09:24;8.13;;;6.53;;
568;SDS011;269;48.884;9.192;2022-12-07T07:11:51;7.28;;;6.43;;
568;SDS011;269;48.884;9.192;2022-12-07T07:14:18;7.65;;;6.68;;
568;SDS011;269;48.884;9.192;2022-12-07T07:16:46;7.18;;;6.47;;
568;SDS011;269;48.884;9.192;2022-12-07T07:19:14;7.43;;;6.72;;
568;SDS011;269;48.884;9.192;2022-12-07T07:21:41;9.68;;;7.22;;
568;SDS011;269;48.884;9.192;2022-12-07T07:24:10;6.80;;;6.10;;
568;SDS011;269;48.884;9.192;2022-12-07T07:26:38;9.52;;;6.05;;
568;SDS011;269;48.884;9.192;2022-12-07T07:29:05;9.00;;;7.03;;
568;SDS011;269;48.884;9.192;2022-12-07T07:31:33;7.30;;;5.95;;
568;SDS011;269;48.884;9.192;2022-12-07T07:34:02;6.82;;;6.22;;
568;SDS011;269;48.884;9.192;2022-12-07T07:36:30;8.20;;;7.38;;
568;SDS011;269;48.884;9.192;2022-12-07T07:38:58;7.30;;;6.60;;
568;SDS011;269;48.884;9.192;2022-12-07T07:41:27;7.53;;;6.05;;
568;SDS011;269;48.884;9.192;2022-12-07T07:43:55;8.45;;;6.60;;
568;SDS011;269;48.884;9.192;2022-12-07T07:46:23;8.32;;;6.30;;
568;SDS011;269;48.884;9.192;2022-12-07T07:48:51;8.25;;;6.95;;
568;SDS011;269;48.884;9.192;2022-12-07T07:51:18;8.27;;;7.28;;
568;SDS011;269;48.884;9.192;2022-12-07T07:53:45;8.65;;;6.80;;
568;SDS011;269;48.884;9.192;2022-12-07T07:56:13;7.03;;;6.32;;
568;SDS011;269;48.884;9.192;2022-12-07T07:58:39;7.50;;;6.80;;
568;SDS011;269;48.884;9.192;2022-12-07T08:01:08;8.10;;;7.30;;
568;SDS011;269;48.884;9.192;2022-12-07T08:03:35;8.05;;;6.32;;
568;SDS011;269;48.884;9.192;2022-12-07T08:06:03;9.02;;;6.68;;
568;SDS011;269;48.884;9.192;2022-12-07T08:08:31;8.07;;;7.25;;
568;SDS011;269;48.884;9.192;2022-12-07T08:10:59;6.80;;;6.20;;
568;SDS011;269;48.884;9.192;2022-12-07T08:13:27;8.05;;;7.15;;
568;SDS011;269;48.884;9.192;2022-12-07T08:15:55;7.30;;;6.60;;
568;SDS011;269;48.884;9.192;2022-12-07T08:18:23;7.13;;;6.43;;
568;SDS011;269;48.884;9.192;2022-12-07T08:20:50;7.78;;;6.00;;
568;SDS011;269;48.884;9.192;2022-12-07T08:23:18;7.07;;;6.03;;
568;SDS011;269;48.884;9.192;2022-12-07T08:25:45;6.72;;;6.00;;
568;SDS011;269;48.884;9.192;2022-12-07T08:28:13;6.85;;;6.00;;
568;SDS011;269;48.884;9.192;2022-12-07T08:30:41;7.50;;;6.60;;
568;SDS011;269;48.884;9.192;2022-12-07T08:33:09;6.80;;;6.10;;
568;SDS011;269;48.884;9.192;2022-12-07T08:35:37;6.40;;;5.80;;
568;SDS011;269;48.884;9.192;2022-12-07T08:38:05;7.55;;;6.82;;
568;SDS011;269;48.884;9.192;2022-12-07T08:40:33;7.82;;;5.93;;
568;SDS011;269;48.884;9.192;2022-12-07T08:43:00;6.75;;;6.15;;
568;SDS011;269;48.884;9.192;2022-12-07T08:45:27;7.25;;;6.55;;
568;SDS011;269;48.884;9.192;2022-12-07T08:47:58;7.25;;;5.93;;
568;SDS011;269;48.884;9.192;2022-12-07T08:50:29;6.53;;;5.93;;
568;SDS011;269;48.884;9.192;2022-12-07T08:52:59;6.30;;;5.70;;
568;SDS011;269;48.884;9.192;2022-12-07T08:55:27;7.30;;;6.03;;
568;SDS011;269;48.884;9.192;2022-12-07T08:57:55;7.55;;;6.75;;
568;SDS011;269;48.884;9.192;2022-12-07T09:00:24;7.55;;;6.85;;
568;SDS011;269;48.884;9.192;2022-12-07T09:02:52;7.15;;;5.97;;
568;SDS011;269;48.884;9.192;2022-12-07T09:05:21;6.68;;;5.93;;
568;SDS011;269;48.884;9.192;2022-12-07T09:07:49;5.82;;;5.30;;
568;SDS011;269;48.884;9.192;2022-12-07T09:10:21;8.43;;;5.93;;
568;SDS011;269;48.884;9.192;2022-12-07T09:12:49;6.25;;;5.65;;
568;SDS011;269;48.884;9.192;2022-12-07T09:15:16;5.90;;;5.30;;
568;SDS011;269;48.884;9.192;2022-12-07T09:17:43;6.90;;;5.45;;
568;SDS011;269;48.884;9.192;2022-12-07T09:20:11;6.40;;;5.80;;
568;SDS011;269;48.884;9.192;2022-12-07T09:22:39;5.63;;;5.10;;
568;SDS011;269;48.884;9.192;2022-12-07T09:25:06;5.78;;;5.10;;
568;SDS011;269;48.884;9.192;2022-12-07T09:27:35;6.18;;;4.65;;
568;SDS011;269;48.884;9.192;2022-12-07T09:30:02;4.40;;;4.00;;
568;SDS011;269;48.884;9.192;2022-12-07T09:32:31;5.18;;;4.50;;
568;SDS011;269;48.884;9.192;2022-12-07T09:34:59;4.50;;;4.10;;
568;SDS011;269;48.884;9.192;2022-12-07T09:37:26;4.80;;;4.20;;
568;SDS011;269;48.884;9.192;2022-12-07T09:39:53;5.90;;;4.90;;
568;SDS011;269;48.884;9.192;2022-12-07T09:42:25;5.07;;;4.57;;
568;SDS011;269;48.884;9.192;2022-12-07T09:44:56;6.70;;;5.60;;
568;SDS011;269;48.884;9.192;2022-12-07T09:47:25;5.63;;;4.88;;
568;SDS011;269;48.884;9.192;2022-12-07T09:49:54;5.43;;;4.93;;
568;SDS011;269;48.884;9.192;2022-12-07T09:52:26;4.90;;;4.50;;
568;SDS011;269;48.884;9.192;2022-12-07T09:54:54;5.25;;;4.22;;
568;SDS011;269;48.884;9.192;2022-12-07T09:57:24;4.47;;;4.07;;
568;SDS011;269;48.884;9.192;2022-12-07T09:59:57;5.90;;;4.28;;
568;SDS011;269;48.884;9.192;2022-12-07T10:02:33;8.50;;;4.53;;
568;SDS011;269;48.884;9.192;2022-12-07T10:05:03;5.28;;;4.78;;
568;SDS011;269;48.884;9.192;2022-12-07T10:07:32;5.40;;;4.63;;
568;SDS011;269;48.884;9.192;2022-12-07T10:10:01;5.18;;;4.65;;
568;SDS011;269;48.884;9.192;2022-12-07T10:12:30;4.95;;;4.50;;
568;SDS011;269;48.884;9.192;2022-12-07T10:15:12;5.45;;;4.80;;
568;SDS011;269;48.884;9.192;2022-12-07T10:17:41;5.38;;;4.38;;
568;SDS011;269;48.884;9.192;2022-12-07T10:20:17;5.03;;;4.18;;
568;SDS011;269;48.884;9.192;2022-12-07T10:22:56;5.45;;;4.43;;
568;SDS011;269;48.884;9.192;2022-12-07T10:25:30;4.45;;;4.05;;
568;SDS011;269;48.884;9.192;2022-12-07T10:28:01;4.22;;;3.45;;
568;SDS011;269;48.884;9.192;2022-12-07T10:30:51;4.45;;;4.05;;
568;SDS011;269;48.884;9.192;2022-12-07T10:33:30;4.90;;;3.90;;
568;SDS011;269;48.884;9.192;2022-12-07T10:36:01;4.15;;;3.75;;
568;SDS011;269;48.884;9.192;2022-12-07T10:38:44;3.67;;;3.35;;
568;SDS011;269;48.884;9.192;2022-12-07T10:41:13;4.18;;;3.78;;
568;SDS011;269;48.884;9.192;2022-12-07T10:43:46;4.00;;;3.70;;
568;SDS011;269;48.884;9.192;2022-12-07T10:52:06;5.20;;;4.70;;
568;SDS011;269;48.884;9.192;2022-12-07T10:54:44;5.05;;;4.55;;
568;SDS011;269;48.884;9.192;2022-12-07T10:57:22;5.40;;;4.15;;
568;SDS011;269;48.884;9.192;2022-12-07T11:00:06;5.63;;;4.30;;
568;SDS011;269;48.884;9.192;2022-12-07T11:05:44;4.95;;;4.45;;
568;SDS011;269;48.884;9.192;2022-12-07T11:08:21;5.88;;;5.07;;
568;SDS011;269;48.884;9.192;2022-12-07T11:11:04;4.85;;;4.45;;
568;SDS011;269;48.884;9.192;2022-12-07T11:13:37;5.50;;;5.00;;
568;SDS011;269;48.884;9.192;2022-12-07T11:19:00;5.22;;;4.72;;
568;SDS011;269;48.884;9.192;2022-12-07T11:21:43;6.53;;;5.80;;
568;SDS011;269;48.884;9.192;2022-12-07T11:24:15;6.65;;;5.65;;
568;SDS011;269;48.884;9.192;2022-12-07T11:26:51;9.10;;;6.57;;
568;SDS011;269;48.884;9.192;2022-12-07T11:32:17;5.95;;;5.45;;
568;SDS011;269;48.884;9.192;2022-12-07T11:34:58;6.55;;;5.78;;
568;SDS011;269;48.884;9.192;2022-12-07T11:37:34;7.45;;;6.75;;
568;SDS011;269;48.884;9.192;2022-12-07T11:40:05;7.63;;;6.82;;
568;SDS011;269;48.884;9.192;2022-12-07T11:42:44;7.75;;;7.00;;
568;SDS011;269;48.884;9.192;2022-12-07T11:45:19;8.80;;;7.90;;
568;SDS011;269;48.884;9.192;2022-12-07T11:47:51;7.68;;;6.88;;
568;SDS011;269;48.884;9.192;2022-12-07T11:50:24;7.30;;;6.60;;
568;SDS011;269;48.884;9.192;2022-12-07T11:52:57;8.15;;;7.35;;
568;SDS011;269;48.884;9.192;2022-12-07T11:55:27;8.27;;;7.45;;
568;SDS011;269;48.884;9.192;2022-12-07T11:58:03;7.80;;;7.10;;
568;SDS011;269;48.884;9.192;2022-12-07T12:00:36;8.82;;;7.15;;
568;SDS011;269;48.884;9.192;2022-12-07T12:03:07;7.82;;;7.05;;
568;SDS011;269;48.884;9.192;2022-12-07T12:05:42;7.88;;;7.18;;
568;SDS011;269;48.884;9.192;2022-12-07T12:08:13;7.80;;;7.07;;
568;SDS011;269;48.884;9.192;2022-12-07T12:10:46;7.50;;;6.85;;
568;SDS011;269;48.884;9.192;2022-12-07T12:13:24;7.15;;;6.45;;
568;SDS011;269;48.884;9.192;2022-12-07T12:16:22;7.45;;;6.75;;
568;SDS011;269;48.884;9.192;2022-12-07T12:19:18;7.07;;;6.38;;
568;SDS011;269;48.884;9.192;2022-12-07T12:21:53;6.97;;;6.25;;
568;SDS011;269;48.884;9.192;2022-12-07T12:24:25;8.27;;;7.32;;
568;SDS011;269;48.884;9.192;2022-12-07T12:26:56;7.68;;;6.88;;
568;SDS011;269;48.884;9.192;2022-12-07T12:29:28;7.85;;;7.05;;
568;SDS011;269;48.884;9.192;2022-12-07T12:32:05;8.98;;;7.80;;
568;SDS011;269;48.884;9.192;2022-12-07T12:34:41;8.05;;;7.25;;
568;SDS011;269;48.884;9.192;2022-12-07T12:37:44;9.15;;;7.65;;
568;SDS011;269;48.884;9.192;2022-12-07T12:55:21;8.15;;;7.32;;
568;SDS011;269;48.884;9.192;2022-12-07T13:04:12;8.05;;;7.25;;
568;SDS011;269;48.884;9.192;2022-12-07T13:07:12;9.65;;;8.57;;
568;SDS011;269;48.884;9.192;2022-12-07T13:10:00;8.40;;;7.35;;
568;SDS011;269;48.884;9.192;2022-12-07T13:12:29;9.98;;;8.90;;
568;SDS011;269;48.884;9.192;2022-12-07T13:14:59;8.70;;;7.90;;
568;SDS011;269;48.884;9.192;2022-12-07T13:20:42;10.82;;;8.80;;
568;SDS011;269;48.884;9.192;2022-12-07T13:23:11;9.93;;;8.93;;
568;SDS011;269;48.884;9.192;2022-12-07T13:28:40;9.23;;;8.25;;
568;SDS011;269;48.884;9.192;2022-12-07T13:34:00;11.13;;;9.48;;
568;SDS011;269;48.884;9.192;2022-12-07T13:36:29;10.40;;;9.40;;
568;SDS011;269;48.884;9.192;2022-12-07T13:39:10;11.38;;;9.25;;
568;SDS011;269;48.884;9.192;2022-12-07T13:41:43;10.50;;;9.43;;
568;SDS011;269;48.884;9.192;2022-12-07T13:44:13;11.27;;;9.63;;
568;SDS011;269;48.884;9.192;2022-12-07T13:46:45;11.68;;;10.23;;
568;SDS011;269;48.884;9.192;2022-12-07T13:49:19;11.88;;;9.05;;
568;SDS011;269;48.884;9.192;2022-12-07T13:51:48;12.00;;;9.95;;
568;SDS011;269;48.884;9.192;2022-12-07T13:54:17;12.32;;;9.52;;
568;SDS011;269;48.884;9.192;2022-12-07T13:56:47;9.43;;;8.52;;
568;SDS011;269;48.884;9.192;2022-12-07T13:59:17;10.75;;;8.60;;
568;SDS011;269;48.884;9.192;2022-12-07T14:01:49;10.32;;;8.80;;
568;SDS011;269;48.884;9.192;2022-12-07T14:04:28;10.30;;;8.43;;
568;SDS011;269;48.884;9.192;2022-12-07T14:06:59;10.30;;;9.23;;
568;SDS011;269;48.884;9.192;2022-12-07T14:09:28;11.70;;;9.48;;
568;SDS011;269;48.884;9.192;2022-12-07T14:11:57;11.60;;;9.85;;
568;SDS011;269;48.884;9.192;2022-12-07T14:14:25;11.60;;;8.90;;
568;SDS011;269;48.884;9.192;2022-12-07T14:16:59;11.27;;;9.75;;
568;SDS011;269;48.884;9.192;2022-12-07T14:19:39;9.98;;;8.98;;
568;SDS011;269;48.884;9.192;2022-12-07T14:22:17;10.38;;;9.10;;
568;SDS011;269;48.884;9.192;2022-12-07T14:24:48;11.38;;;10.13;;
568;SDS011;269;48.884;9.192;2022-12-07T14:27:16;12.57;;;10.98;;
568;SDS011;269;48.884;9.192;2022-12-07T14:29:45;10.80;;;9.55;;
568;SDS011;269;48.884;9.192;2022-12-07T14:32:21;10.85;;;9.50;;
568;SDS011;269;48.884;9.192;2022-12-07T14:34:54;11.93;;;10.07;;
568;SDS011;269;48.884;9.192;2022-12-07T14:37:23;11.00;;;9.90;;
568;SDS011;269;48.884;9.192;2022-12-07T14:39:51;9.75;;;8.75;;
568;SDS011;269;48.884;9.192;2022-12-07T14:42:18;11.30;;;9.45;;
568;SDS011;269;48.884;9.192;2022-12-07T14:44:49;10.35;;;9.35;;
568;SDS011;269;48.884;9.192;2022-12-07T14:47:16;11.40;;;10.30;;
568;SDS011;269;48.884;9.192;2022-12-07T14:49:44;10.32;;;9.30;;
568;SDS011;269;48.884;9.192;2022-12-07T14:52:13;11.93;;;9.73;;
568;SDS011;269;48.884;9.192;2022-12-07T14:54:42;13.45;;;10.70;;
568;SDS011;269;48.884;9.192;2022-12-07T14:57:10;11.75;;;9.90;;
568;SDS011;269;48.884;9.192;2022-12-07T14:59:39;11.15;;;10.07;;
568;SDS011;269;48.884;9.192;2022-12-07T15:02:08;12.73;;;9.77;;
568;SDS011;269;48.884;9.192;2022-12-07T15:04:37;11.70;;;10.30;;
568;SDS011;269;48.884;9.192;2022-12-07T15:07:10;11.15;;;9.95;;
568;SDS011;269;48.884;9.192;2022-12-07T15:09:43;10.48;;;9.38;;
568;SDS011;269;48.884;9.192;2022-12-07T15:12:10;11.48;;;9.52;;
568;SDS011;269;48.884;9.192;2022-12-07T15:14:37;9.98;;;8.98;;
568;SDS011;269;48.884;9.192;2022-12-07T15:17:04;11.05;;;9.65;;
568;SDS011;269;48.884;9.192;2022-12-07T15:19:32;11.65;;;10.38;;
568;SDS011;269;48.884;9.192;2022-12-07T15:22:00;10.98;;;9.82;;
568;SDS011;269;48.884;9.192;2022-12-07T15:24:32;11.02;;;9.82;;
568;SDS011;269;48.884;9.192;2022-12-07T15:27:00;12.30;;;11.00;;
568;SDS011;269;48.884;9.192;2022-12-07T15:29:27;13.63;;;10.93;;
568;SDS011;269;48.884;9.192;2022-12-07T15:31:55;13.57;;;12.02;;
568;SDS011;269;48.884;9.192;2022-12-07T15:34:22;12.82;;;10.70;;
568;SDS011;269;48.884;9.192;2022-12-07T15:36:50;13.23;;;11.40;;
568;SDS011;269;48.884;9.192;2022-12-07T15:39:17;12.23;;;11.02;;
568;SDS011;269;48.884;9.192;2022-12-07T15:41:46;15.48;;;11.95;;
568;SDS011;269;48.884;9.192;2022-12-07T15:44:13;13.07;;;11.52;;
568;SDS011;269;48.884;9.192;2022-12-07T15:46:59;13.00;;;11.52;;
568;SDS011;269;48.884;9.192;2022-12-07T15:49:26;14.30;;;12.70;;
568;SDS011;269;48.884;9.192;2022-12-07T15:51:54;15.57;;;12.70;;
568;SDS011;269;48.884;9.192;2022-12-07T15:54:22;14.27;;;12.40;;
568;SDS011;269;48.884;9.192;2022-12-07T15:56:53;15.07;;;13.25;;
568;SDS011;269;48.884;9.192;2022-12-07T15:59:22;15.50;;;12.55;;
568;SDS011;269;48.884;9.192;2022-12-07T16:01:49;15.45;;;13.05;;
568;SDS011;269;48.884;9.192;2022-12-07T16:04:17;16.75;;;13.25;;
568;SDS011;269;48.884;9.192;2022-12-07T16:06:45;15.10;;;12.30;;
568;SDS011;269;48.884;9.192;2022-12-07T16:09:15;16.58;;;13.90;;
568;SDS011;269;48.884;9.192;2022-12-07T16:11:43;15.05;;;12.25;;
568;SDS011;269;48.884;9.192;2022-12-07T16:14:12;16.80;;;13.25;;
568;SDS011;269;48.884;9.192;2022-12-07T16:16:39;15.00;;;12.02;;
568;SDS011;269;48.884;9.192;2022-12-07T16:19:06;13.32;;;11.77;;
568;SDS011;269;48.884;9.192;2022-12-07T16:21:34;12.65;;;10.55;;
568;SDS011;269;48.884;9.192;2022-12-07T16:24:02;12.55;;;10.88;;
568;SDS011;269;48.884;9.192;2022-12-07T16:26:30;12.48;;;11.00;;
568;SDS011;269;48.884;9.192;2022-12-07T16:28:58;14.85;;;12.50;;
568;SDS011;269;48.884;9.192;2022-12-07T16:31:27;14.32;;;11.52;;
568;SDS011;269;48.884;9.192;2022-12-07T16:33:55;13.48;;;10.68;;
568;SDS011;269;48.884;9.192;2022-12-07T16:36:24;14.68;;;10.77;;
568;SDS011;269;48.884;9.192;2022-12-07T16:38:53;13.77;;;11.38;;
568;SDS011;269;48.884;9.192;2022-12-07T16:41:20;13.10;;;11.13;;
568;SDS011;269;48.884;9.192;2022-12-07T16:43:49;12.23;;;10.50;;